Great Hebei — VRFU6 — position and weather

sailwx.info

Track history (hours):
 
Tides and Currents Weather Stations Pressure Air Temp Water Temp Dewpoint Dewpoint Depression Visibility Wind Speed Wind Dir Waves Ship Positions

Great Hebei

Last reported at 2015-Jul-17 10:32 UTC. Time now 2015-Jul-28 03:26 UTC.
Position N 37°18' E 123°23'.
Warning: this ship's position is 10 days out of date.

Length 295 m; draft 8.4 m.

Type: Cargo ship. MMSI: 477617100.

Date/timePositionNaut miles runAvg speedWind from/ knotsBaromVisibWave heightAir tempDewpointWater temp
2015-Jul-17 10:32N 37°18' E 123°23'9 9.5
2015-Jul-17 09:33N 37°25' E 123°16'2010.2
2015-Jul-17 07:33N 37°37' E 122°55'1311.1
2015-Jul-17 06:22N 37°43' E 122°41'1011.0
2015-Jul-17 05:25N 37°49' E 122°29'1910.1
2015-Jul-17 03:32N 37°58' E 122°08'19 9.6
2015-Jul-17 01:31N 38°08' E 121°47'10 9.9
2015-Jul-17 00:32N 38°13' E 121°36'1010.3
2015-Jul-16 23:33N 38°18' E 121°25'168 9.3
2015-Jul-16 05:33N 38°57' E 117°56'7 6.5
2015-Jul-16 04:31N 38°58' E 117°48'0 0.0
2015-Jul-16 03:31N 38°58' E 117°48'0 0.0
2015-Jul-16 02:31N 38°58' E 117°48'0 0.0
2015-Jul-16 01:31N 38°58' E 117°48'0 0.0
2015-Jul-16 00:31N 38°58' E 117°48'0 0.0
2015-Jul-15 23:31N 38°58' E 117°48'0 0.0
2015-Jul-15 22:19N 38°58' E 117°48'0 0.0
2015-Jul-15 21:31N 38°58' E 117°48'0 0.0
2015-Jul-15 20:31N 38°58' E 117°48'0 0.0
2015-Jul-15 19:31N 38°58' E 117°48'0 0.0
2015-Jul-15 18:31N 38°58' E 117°48'0 0.0
2015-Jul-15 17:31N 38°58' E 117°48'0 0.0
2015-Jul-15 16:31N 38°58' E 117°48'0 0.0
2015-Jul-15 15:31N 38°58' E 117°48'0 0.0
2015-Jul-15 14:31N 38°58' E 117°48'0 0.0
2015-Jul-15 13:31N 38°58' E 117°48'0 0.0
2015-Jul-15 12:31N 38°58' E 117°48'0 0.0
2015-Jul-15 11:31N 38°58' E 117°48'0 0.0
2015-Jul-15 10:31N 38°58' E 117°48'0 0.0
2015-Jul-15 09:31N 38°58' E 117°48'0 0.0
2015-Jul-15 08:31N 38°58' E 117°48'0 0.0
2015-Jul-15 07:31N 38°58' E 117°48'0 0.0
2015-Jul-15 06:31N 38°58' E 117°48'0 0.0
2015-Jul-15 05:25N 38°58' E 117°48'0 0.0
2015-Jul-15 04:31N 38°58' E 117°48'0 0.0
2015-Jul-15 03:25N 38°58' E 117°48'0 0.0
2015-Jul-15 02:31N 38°58' E 117°48'0 0.0
2015-Jul-15 01:31N 38°58' E 117°48'0 0.0
2015-Jul-15 00:25N 38°58' E 117°48'0 0.0
2015-Jul-14 23:31N 38°58' E 117°48'0 0.0
2015-Jul-14 22:31N 38°58' E 117°48'0 0.0
2015-Jul-14 21:25N 38°58' E 117°48'0 0.0
2015-Jul-14 20:31N 38°58' E 117°48'0 0.0
2015-Jul-14 19:31N 38°58' E 117°48'0 0.0
2015-Jul-14 18:31N 38°58' E 117°48'0 0.0
2015-Jul-14 17:19N 38°58' E 117°48'0 0.0
2015-Jul-14 16:31N 38°58' E 117°48'0 0.0
2015-Jul-14 15:33N 38°58' E 117°48'0 0.0
2015-Jul-14 14:33N 38°58' E 117°48'0 0.0
2015-Jul-14 13:33N 38°58' E 117°48'0 0.0
2015-Jul-14 12:33N 38°58' E 117°48'0 0.0
2015-Jul-14 11:33N 38°58' E 117°48'0 0.0
2015-Jul-14 10:33N 38°58' E 117°48'0 0.0
2015-Jul-14 09:33N 38°58' E 117°48'0 0.0
2015-Jul-14 08:33N 38°58' E 117°48'4 3.5
2015-Jul-14 07:33N 38°57' E 117°52'1211.2
2015-Jul-14 06:30N 38°55' E 118°07'7 5.5
2015-Jul-14 05:12N 38°50' E 118°14'1 1.1
2015-Jul-14 04:08N 38°50' E 118°13'0 0.1
2015-Jul-14 03:14N 38°50' E 118°13'0 0.0
2015-Jul-14 02:32N 38°50' E 118°13'0 0.0
2015-Jul-14 01:26N 38°50' E 118°13'0 0.1
2015-Jul-13 21:26N 38°50' E 118°13'0 0.1
2015-Jul-13 18:26N 38°50' E 118°13'0 0.2
2015-Jul-13 17:26N 38°50' E 118°13'0 0.0
2015-Jul-13 16:32N 38°50' E 118°13'0 0.0
2015-Jul-13 15:32N 38°50' E 118°13'0 0.0
2015-Jul-13 14:32N 38°50' E 118°13'0 0.1
2015-Jul-13 09:08N 38°50' E 118°13'0 0.0
2015-Jul-13 08:32N 38°50' E 118°13'0 0.0
2015-Jul-13 07:20N 38°50' E 118°13'0 0.1
2015-Jul-13 03:32N 38°50' E 118°13'0 0.0
2015-Jul-13 02:26N 38°50' E 118°13'0 0.0
2015-Jul-13 01:26N 38°50' E 118°13'0 0.0
2015-Jul-13 00:32N 38°50' E 118°13'0 0.0
2015-Jul-12 15:20N 38°50' E 118°13'0 0.0
2015-Jul-12 14:26N 38°50' E 118°13'0 0.0
2015-Jul-12 13:26N 38°50' E 118°13'0 0.1
2015-Jul-12 11:14N 38°50' E 118°13'0 0.1
2015-Jul-12 10:32N 38°50' E 118°13'0 0.0
2015-Jul-12 06:20N 38°50' E 118°13'0 0.1
2015-Jul-12 01:32N 38°50' E 118°13'0 0.0
2015-Jul-11 23:32N 38°50' E 118°13'0 0.0
2015-Jul-11 12:32N 38°50' E 118°13'0 0.0
2015-Jul-11 11:32N 38°50' E 118°13'0 0.0
2015-Jul-11 01:08N 38°50' E 118°13'0 0.0
2015-Jul-11 00:26N 38°50' E 118°13'0 0.0
2015-Jul-10 23:26N 38°50' E 118°13'0 0.0
2015-Jul-10 22:20N 38°50' E 118°13'0 0.3
2015-Jul-10 21:20N 38°50' E 118°13'0 0.1
2015-Jul-10 20:26N 38°50' E 118°13'0 0.0
2015-Jul-10 13:14N 38°50' E 118°13'0 0.0
2015-Jul-10 12:14N 38°50' E 118°13'0 0.0
2015-Jul-10 10:32N 38°50' E 118°13'0 0.0
2015-Jul-09 15:32N 38°50' E 118°13'0 0.2
2015-Jul-09 14:20N 38°50' E 118°13'0 0.1
2015-Jul-09 11:32N 38°50' E 118°13'0 0.0
2015-Jul-09 10:14N 38°50' E 118°13'0 0.0
2015-Jul-09 09:32N 38°50' E 118°13'0 0.0
2015-Jul-09 08:26N 38°50' E 118°13'0 0.2
2015-Jul-09 07:32N 38°50' E 118°13'0 0.2
2015-Jul-09 06:14N 38°50' E 118°13'0 0.0
2015-Jul-09 05:32N 38°50' E 118°13'0 0.0
2015-Jul-09 04:32N 38°50' E 118°13'0 0.0
2015-Jul-09 03:20N 38°50' E 118°13'0 0.1
2015-Jul-09 00:20N 38°50' E 118°13'0 0.1
2015-Jul-08 23:32N 38°50' E 118°13'0 0.0
2015-Jul-08 21:32N 38°50' E 118°13'0 0.0
2015-Jul-08 20:32N 38°50' E 118°13'0 0.2
2015-Jul-08 19:14N 38°50' E 118°13'0 0.2
2015-Jul-08 18:32N 38°50' E 118°13'0 0.0
2015-Jul-08 17:20N 38°50' E 118°13'0 0.0
2015-Jul-08 16:32N 38°50' E 118°13'0 0.0
2015-Jul-08 15:32N 38°50' E 118°13'0 0.0
2015-Jul-08 14:20N 38°50' E 118°13'0 0.1
2015-Jul-08 10:26N 38°50' E 118°13'0 0.1
2015-Jul-08 09:32N 38°50' E 118°13'0 0.0
2015-Jul-08 08:08N 38°50' E 118°13'0 0.0
2015-Jul-08 07:26N 38°50' E 118°13'0 0.3
2015-Jul-08 06:20N 38°50' E 118°13'0 0.0
2015-Jul-08 05:32N 38°50' E 118°13'0 0.0
2015-Jul-08 04:32N 38°50' E 118°13'0 0.0
2015-Jul-08 03:26N 38°50' E 118°13'0 0.0
2015-Jul-08 00:32N 38°50' E 118°13'0 0.2
2015-Jul-07 23:32N 38°50' E 118°13'0 0.1
2015-Jul-07 22:32N 38°50' E 118°13'0 0.0
2015-Jul-07 21:26N 38°50' E 118°13'0 0.0
2015-Jul-07 20:32N 38°50' E 118°13'0 0.1
2015-Jul-07 19:32N 38°50' E 118°13'0 0.2
2015-Jul-07 18:14N 38°50' E 118°13'0 0.0
2015-Jul-07 17:32N 38°50' E 118°13'0 0.0
2015-Jul-07 16:20N 38°50' E 118°13'0 0.0
2015-Jul-07 15:26N 38°50' E 118°13'0 0.0
2015-Jul-07 14:26N 38°50' E 118°13'0 0.0
2015-Jul-07 13:14N 38°50' E 118°13'0 0.2
2015-Jul-07 11:32N 38°50' E 118°13'  
Track history (hours):
 
Tides and Currents Weather Stations Pressure Air Temp Water Temp Dewpoint Dewpoint Depression Visibility Wind Speed Wind Dir Waves Ship Positions

Great Hebei

Last reported at 2015-Jul-17 10:32 UTC. Time now 2015-Jul-28 03:26 UTC.
Position N 37°18' E 123°23'.
Warning: this ship's position is 10 days out of date.

Length 295 m; draft 8.4 m.

Type: Cargo ship. MMSI: 477617100.

Date/timePositionNaut miles runAvg speedWind from/ knotsBaromVisibWave heightAir tempDewpointWater temp
2015-Jul-17 10:32N 37°18' E 123°23'9 9.5
2015-Jul-17 09:33N 37°25' E 123°16'2010.2
2015-Jul-17 07:33N 37°37' E 122°55'1311.1
2015-Jul-17 06:22N 37°43' E 122°41'1011.0
2015-Jul-17 05:25N 37°49' E 122°29'1910.1
2015-Jul-17 03:32N 37°58' E 122°08'19 9.6
2015-Jul-17 01:31N 38°08' E 121°47'10 9.9
2015-Jul-17 00:32N 38°13' E 121°36'1010.3
2015-Jul-16 23:33N 38°18' E 121°25'168 9.3
2015-Jul-16 05:33N 38°57' E 117°56'7 6.5
2015-Jul-16 04:31N 38°58' E 117°48'0 0.0
2015-Jul-16 03:31N 38°58' E 117°48'0 0.0
2015-Jul-16 02:31N 38°58' E 117°48'0 0.0
2015-Jul-16 01:31N 38°58' E 117°48'0 0.0
2015-Jul-16 00:31N 38°58' E 117°48'0 0.0
2015-Jul-15 23:31N 38°58' E 117°48'0 0.0
2015-Jul-15 22:19N 38°58' E 117°48'0 0.0
2015-Jul-15 21:31N 38°58' E 117°48'0 0.0
2015-Jul-15 20:31N 38°58' E 117°48'0 0.0
2015-Jul-15 19:31N 38°58' E 117°48'0 0.0
2015-Jul-15 18:31N 38°58' E 117°48'0 0.0
2015-Jul-15 17:31N 38°58' E 117°48'0 0.0
2015-Jul-15 16:31N 38°58' E 117°48'0 0.0
2015-Jul-15 15:31N 38°58' E 117°48'0 0.0
2015-Jul-15 14:31N 38°58' E 117°48'0 0.0
2015-Jul-15 13:31N 38°58' E 117°48'0 0.0
2015-Jul-15 12:31N 38°58' E 117°48'0 0.0
2015-Jul-15 11:31N 38°58' E 117°48'0 0.0
2015-Jul-15 10:31N 38°58' E 117°48'0 0.0
2015-Jul-15 09:31N 38°58' E 117°48'0 0.0
2015-Jul-15 08:31N 38°58' E 117°48'0 0.0
2015-Jul-15 07:31N 38°58' E 117°48'0 0.0
2015-Jul-15 06:31N 38°58' E 117°48'0 0.0
2015-Jul-15 05:25N 38°58' E 117°48'0 0.0
2015-Jul-15 04:31N 38°58' E 117°48'0 0.0
2015-Jul-15 03:25N 38°58' E 117°48'0 0.0
2015-Jul-15 02:31N 38°58' E 117°48'0 0.0
2015-Jul-15 01:31N 38°58' E 117°48'0 0.0
2015-Jul-15 00:25N 38°58' E 117°48'0 0.0
2015-Jul-14 23:31N 38°58' E 117°48'0 0.0
2015-Jul-14 22:31N 38°58' E 117°48'0 0.0
2015-Jul-14 21:25N 38°58' E 117°48'0 0.0
2015-Jul-14 20:31N 38°58' E 117°48'0 0.0
2015-Jul-14 19:31N 38°58' E 117°48'0 0.0
2015-Jul-14 18:31N 38°58' E 117°48'0 0.0
2015-Jul-14 17:19N 38°58' E 117°48'0 0.0
2015-Jul-14 16:31N 38°58' E 117°48'0 0.0
2015-Jul-14 15:33N 38°58' E 117°48'0 0.0
2015-Jul-14 14:33N 38°58' E 117°48'0 0.0
2015-Jul-14 13:33N 38°58' E 117°48'0 0.0
2015-Jul-14 12:33N 38°58' E 117°48'0 0.0
2015-Jul-14 11:33N 38°58' E 117°48'0 0.0
2015-Jul-14 10:33N 38°58' E 117°48'0 0.0
2015-Jul-14 09:33N 38°58' E 117°48'0 0.0
2015-Jul-14 08:33N 38°58' E 117°48'4 3.5
2015-Jul-14 07:33N 38°57' E 117°52'1211.2
2015-Jul-14 06:30N 38°55' E 118°07'7 5.5
2015-Jul-14 05:12N 38°50' E 118°14'1 1.1
2015-Jul-14 04:08N 38°50' E 118°13'0 0.1
2015-Jul-14 03:14N 38°50' E 118°13'0 0.0
2015-Jul-14 02:32N 38°50' E 118°13'0 0.0
2015-Jul-14 01:26N 38°50' E 118°13'0 0.1
2015-Jul-13 21:26N 38°50' E 118°13'0 0.1
2015-Jul-13 18:26N 38°50' E 118°13'0 0.2
2015-Jul-13 17:26N 38°50' E 118°13'0 0.0
2015-Jul-13 16:32N 38°50' E 118°13'0 0.0
2015-Jul-13 15:32N 38°50' E 118°13'0 0.0
2015-Jul-13 14:32N 38°50' E 118°13'0 0.1
2015-Jul-13 09:08N 38°50' E 118°13'0 0.0
2015-Jul-13 08:32N 38°50' E 118°13'0 0.0
2015-Jul-13 07:20N 38°50' E 118°13'0 0.1
2015-Jul-13 03:32N 38°50' E 118°13'0 0.0
2015-Jul-13 02:26N 38°50' E 118°13'0 0.0
2015-Jul-13 01:26N 38°50' E 118°13'0 0.0
2015-Jul-13 00:32N 38°50' E 118°13'0 0.0
2015-Jul-12 15:20N 38°50' E 118°13'0 0.0
2015-Jul-12 14:26N 38°50' E 118°13'0 0.0
2015-Jul-12 13:26N 38°50' E 118°13'0 0.1
2015-Jul-12 11:14N 38°50' E 118°13'0 0.1
2015-Jul-12 10:32N 38°50' E 118°13'0 0.0
2015-Jul-12 06:20N 38°50' E 118°13'0 0.1
2015-Jul-12 01:32N 38°50' E 118°13'0 0.0
2015-Jul-11 23:32N 38°50' E 118°13'0 0.0
2015-Jul-11 12:32N 38°50' E 118°13'0 0.0
2015-Jul-11 11:32N 38°50' E 118°13'0 0.0
2015-Jul-11 01:08N 38°50' E 118°13'0 0.0
2015-Jul-11 00:26N 38°50' E 118°13'0 0.0
2015-Jul-10 23:26N 38°50' E 118°13'0 0.0
2015-Jul-10 22:20N 38°50' E 118°13'0 0.3
2015-Jul-10 21:20N 38°50' E 118°13'0 0.1
2015-Jul-10 20:26N 38°50' E 118°13'0 0.0
2015-Jul-10 13:14N 38°50' E 118°13'0 0.0
2015-Jul-10 12:14N 38°50' E 118°13'0 0.0
2015-Jul-10 10:32N 38°50' E 118°13'0 0.0
2015-Jul-09 15:32N 38°50' E 118°13'0 0.2
2015-Jul-09 14:20N 38°50' E 118°13'0 0.1
2015-Jul-09 11:32N 38°50' E 118°13'0 0.0
2015-Jul-09 10:14N 38°50' E 118°13'0 0.0
2015-Jul-09 09:32N 38°50' E 118°13'0 0.0
2015-Jul-09 08:26N 38°50' E 118°13'0 0.2
2015-Jul-09 07:32N 38°50' E 118°13'0 0.2
2015-Jul-09 06:14N 38°50' E 118°13'0 0.0
2015-Jul-09 05:32N 38°50' E 118°13'0 0.0
2015-Jul-09 04:32N 38°50' E 118°13'0 0.0
2015-Jul-09 03:20N 38°50' E 118°13'0 0.1
2015-Jul-09 00:20N 38°50' E 118°13'0 0.1
2015-Jul-08 23:32N 38°50' E 118°13'0 0.0
2015-Jul-08 21:32N 38°50' E 118°13'0 0.0
2015-Jul-08 20:32N 38°50' E 118°13'0 0.2
2015-Jul-08 19:14N 38°50' E 118°13'0 0.2
2015-Jul-08 18:32N 38°50' E 118°13'0 0.0
2015-Jul-08 17:20N 38°50' E 118°13'0 0.0
2015-Jul-08 16:32N 38°50' E 118°13'0 0.0
2015-Jul-08 15:32N 38°50' E 118°13'0 0.0
2015-Jul-08 14:20N 38°50' E 118°13'0 0.1
2015-Jul-08 10:26N 38°50' E 118°13'0 0.1
2015-Jul-08 09:32N 38°50' E 118°13'0 0.0
2015-Jul-08 08:08N 38°50' E 118°13'0 0.0
2015-Jul-08 07:26N 38°50' E 118°13'0 0.3
2015-Jul-08 06:20N 38°50' E 118°13'0 0.0
2015-Jul-08 05:32N 38°50' E 118°13'0 0.0
2015-Jul-08 04:32N 38°50' E 118°13'0 0.0
2015-Jul-08 03:26N 38°50' E 118°13'0 0.0
2015-Jul-08 00:32N 38°50' E 118°13'0 0.2
2015-Jul-07 23:32N 38°50' E 118°13'0 0.1
2015-Jul-07 22:32N 38°50' E 118°13'0 0.0
2015-Jul-07 21:26N 38°50' E 118°13'0 0.0
2015-Jul-07 20:32N 38°50' E 118°13'0 0.1
2015-Jul-07 19:32N 38°50' E 118°13'0 0.2
2015-Jul-07 18:14N 38°50' E 118°13'0 0.0
2015-Jul-07 17:32N 38°50' E 118°13'0 0.0
2015-Jul-07 16:20N 38°50' E 118°13'0 0.0
2015-Jul-07 15:26N 38°50' E 118°13'0 0.0
2015-Jul-07 14:26N 38°50' E 118°13'0 0.0
2015-Jul-07 13:14N 38°50' E 118°13'0 0.2
2015-Jul-07 11:32N 38°50' E 118°13'  

Dump ship's entire track history